Terminal Aerodrome Forecast
Issued by NWS

Home | Current Version | Previous Version | Text Only | Print | Product List | Glossary On
Versions: 1 2 3 4 5 6 7 8 9 10 11 12 13 14 15 16
078
FTUS42 KTBW 221504 AAA
TAFPGD
TAF AMD
KPGD 221504Z 2215/2312 11010KT P6SM VCSH SCT025 BKN100
      TEMPO 2215/2219 RA BKN015
     FM221900 18009KT P6SM VCTS SCT025CB BKN050
     FM230100 12003KT P6SM FEW030 SCT100
     FM230800 13003KT 5SM BR FEW005 SCT015=

USA.gov is the U.S. government's official web portal to all federal, state and local government web resources and services.